createdAt,value
2023-03-02T00:00:28.130Z,1.34
2023-03-02T00:01:28.090Z,1.34
2023-03-02T00:02:28.144Z,1.26
2023-03-02T00:03:28.107Z,1.28
2023-03-02T00:04:28.092Z,1.21
2023-03-02T00:05:28.074Z,1.21
2023-03-02T00:06:28.047Z,1.25
2023-03-02T00:07:28.069Z,1.26
2023-03-02T00:08:28.025Z,1.21
2023-03-02T00:09:28.007Z,1.26
2023-03-02T00:10:28.021Z,1.26
2023-03-02T00:11:27.972Z,1.18
2023-03-02T00:12:27.979Z,1.21
2023-03-02T00:13:27.979Z,1.20
2023-03-02T00:14:27.955Z,1.11
2023-03-02T00:15:27.942Z,1.14
2023-03-02T00:16:27.959Z,1.14
2023-03-02T00:17:27.965Z,1.10
2023-03-02T00:18:27.928Z,1.16
2023-03-02T00:19:27.908Z,1.17
2023-03-02T00:20:27.893Z,1.14
2023-03-02T00:21:27.875Z,1.14
2023-03-02T00:22:27.909Z,1.18
2023-03-02T00:23:27.848Z,1.18
2023-03-02T00:24:27.846Z,1.17
2023-03-02T00:25:27.848Z,1.20
2023-03-02T00:26:27.853Z,1.16
2023-03-02T00:27:27.802Z,1.16
2023-03-02T00:28:27.800Z,1.13
2023-03-02T00:29:27.821Z,1.08
2023-03-02T00:30:27.806Z,1.14
2023-03-02T00:31:27.849Z,1.13
2023-03-02T00:32:27.852Z,1.10
2023-03-02T00:33:27.762Z,1.04
2023-03-02T00:34:27.760Z,0.96
2023-03-02T00:35:27.764Z,0.98
2023-03-02T00:36:27.713Z,0.92
2023-03-02T00:37:27.732Z,0.96
2023-03-02T00:38:27.737Z,0.93
2023-03-02T00:39:27.672Z,0.90
2023-03-02T00:40:28.708Z,0.92
2023-03-02T00:41:27.665Z,0.90
2023-03-02T00:42:27.651Z,0.95
2023-03-02T00:43:27.678Z,0.96
2023-03-02T00:44:27.631Z,0.98
2023-03-02T00:45:27.656Z,0.96
2023-03-02T00:46:27.649Z,0.92
2023-03-02T00:47:27.604Z,0.96
2023-03-02T00:48:27.588Z,0.98
2023-03-02T00:49:27.561Z,0.96
2023-03-02T00:50:27.565Z,1.00
2023-03-02T00:51:27.547Z,0.95
2023-03-02T00:52:27.562Z,0.96
2023-03-02T00:53:27.527Z,0.96
2023-03-02T00:54:27.512Z,1.02
2023-03-02T00:55:27.506Z,0.96
2023-03-02T00:56:27.496Z,1.00
2023-03-02T00:57:27.478Z,0.92
2023-03-02T00:58:27.494Z,0.88
2023-03-02T00:59:27.485Z,0.89
2023-03-02T01:00:27.446Z,0.88
2023-03-02T01:01:27.466Z,0.99
2023-03-02T01:02:27.555Z,0.99
2023-03-02T01:03:27.448Z,0.99
2023-03-02T01:04:27.432Z,1.04
2023-03-02T01:05:27.400Z,0.96
2023-03-02T01:06:27.401Z,0.99
2023-03-02T01:07:27.394Z,0.99
2023-03-02T01:08:27.365Z,0.98
2023-03-02T01:09:27.372Z,0.99
2023-03-02T01:10:27.350Z,0.96
2023-03-02T01:11:27.364Z,1.00
2023-03-02T01:12:27.317Z,1.07
2023-03-02T01:13:27.314Z,1.06
2023-03-02T01:14:27.351Z,1.08
2023-03-02T01:15:27.283Z,1.06
2023-03-02T01:16:27.360Z,0.99
2023-03-02T01:17:27.298Z,1.00
2023-03-02T01:18:27.255Z,0.98
2023-03-02T01:19:27.268Z,0.96
2023-03-02T01:20:27.239Z,0.98
2023-03-02T01:21:27.234Z,1.02
2023-03-02T01:22:27.216Z,1.00
2023-03-02T01:23:27.229Z,1.00
2023-03-02T01:24:27.213Z,1.06
2023-03-02T01:25:27.211Z,0.96
2023-03-02T01:26:27.186Z,0.93
2023-03-02T01:27:27.171Z,1.00
2023-03-02T01:28:27.153Z,0.99
2023-03-02T01:29:27.180Z,1.04
2023-03-02T01:30:27.166Z,0.98
2023-03-02T01:31:27.149Z,1.02
2023-03-02T01:32:27.131Z,1.04
2023-03-02T01:33:27.118Z,1.02
2023-03-02T01:34:27.106Z,1.11
2023-03-02T01:35:27.135Z,1.06
2023-03-02T01:36:27.088Z,0.99
2023-03-02T01:37:27.076Z,1.02
2023-03-02T01:38:27.130Z,0.98
2023-03-02T01:39:27.028Z,0.98
2023-03-02T01:40:27.030Z,1.02
2023-03-02T01:41:27.041Z,0.96
2023-03-02T01:42:26.993Z,0.98
2023-03-02T01:43:27.019Z,0.99
2023-03-02T01:44:26.972Z,0.96
2023-03-02T01:45:27.048Z,0.93
2023-03-02T01:46:26.958Z,0.98
2023-03-02T01:47:26.972Z,0.96
2023-03-02T01:48:26.944Z,0.98
2023-03-02T01:49:26.946Z,0.84
2023-03-02T01:50:26.909Z,0.93
2023-03-02T01:51:26.906Z,0.88
2023-03-02T01:52:26.913Z,0.86
2023-03-02T01:53:26.884Z,0.93
2023-03-02T01:54:26.874Z,0.92
2023-03-02T01:55:26.861Z,0.86
2023-03-02T01:56:26.848Z,0.81
2023-03-02T01:57:26.843Z,0.86
2023-03-02T01:58:26.848Z,0.84
2023-03-02T01:59:26.842Z,0.82
2023-03-02T02:00:26.800Z,0.84
2023-03-02T02:01:28.986Z,0.84
2023-03-02T02:02:26.779Z,0.81
2023-03-02T02:03:26.796Z,0.84
2023-03-02T02:04:26.911Z,0.84
2023-03-02T02:05:26.771Z,0.84
2023-03-02T02:06:26.743Z,0.84
2023-03-02T02:07:27.793Z,0.70
2023-03-02T02:08:26.748Z,0.78
2023-03-02T02:09:26.713Z,0.68
2023-03-02T02:10:26.689Z,0.75
2023-03-02T02:11:26.689Z,0.78
2023-03-02T02:12:26.679Z,0.78
2023-03-02T02:13:26.672Z,0.70
2023-03-02T02:14:26.699Z,0.71
2023-03-02T02:15:26.660Z,0.74
2023-03-02T02:16:26.645Z,0.63
2023-03-02T02:17:26.630Z,0.75
2023-03-02T02:18:26.617Z,0.67
2023-03-02T02:19:26.613Z,0.72
2023-03-02T02:20:26.611Z,0.74
2023-03-02T02:21:26.603Z,0.67
2023-03-02T02:22:26.566Z,0.70
2023-03-02T02:23:26.554Z,0.71
2023-03-02T02:24:26.578Z,0.80
2023-03-02T02:25:26.532Z,0.62
2023-03-02T02:26:26.535Z,0.70
2023-03-02T02:27:26.512Z,0.68
2023-03-02T02:28:26.511Z,0.67
2023-03-02T02:29:26.498Z,0.63
2023-03-02T02:30:26.510Z,0.64
2023-03-02T02:31:26.591Z,0.63
2023-03-02T02:32:26.594Z,0.64
2023-03-02T02:33:26.457Z,0.74
2023-03-02T02:34:26.470Z,0.68
2023-03-02T02:35:26.489Z,0.70
2023-03-02T02:36:26.463Z,0.74
2023-03-02T02:37:26.445Z,0.64
2023-03-02T02:38:26.394Z,0.62
2023-03-02T02:39:26.413Z,0.57
2023-03-02T02:40:26.388Z,0.53
2023-03-02T02:41:26.371Z,0.59
2023-03-02T02:42:26.372Z,0.59
2023-03-02T02:43:26.334Z,0.52
2023-03-02T02:44:26.355Z,0.64
2023-03-02T02:45:26.396Z,0.57
2023-03-02T02:46:26.312Z,0.57
2023-03-02T02:47:26.311Z,0.56
2023-03-02T02:48:26.290Z,0.70
2023-03-02T02:49:26.284Z,0.57
2023-03-02T02:50:26.265Z,0.56
2023-03-02T02:51:26.266Z,0.57
2023-03-02T02:52:26.241Z,0.57
2023-03-02T02:53:26.280Z,0.52
2023-03-02T02:54:26.224Z,0.63
2023-03-02T02:55:26.204Z,0.56
2023-03-02T02:56:26.197Z,0.53
2023-03-02T02:57:26.217Z,0.48
2023-03-02T02:58:26.195Z,0.62
2023-03-02T02:59:26.178Z,0.49
2023-03-02T03:00:26.160Z,0.53
2023-03-02T03:01:26.581Z,0.48
2023-03-02T03:02:26.140Z,0.53
2023-03-02T03:03:26.157Z,0.56
2023-03-02T03:04:26.192Z,0.52
2023-03-02T03:05:26.107Z,0.53
2023-03-02T03:06:26.107Z,0.59
2023-03-02T03:07:26.079Z,0.51
2023-03-02T03:08:26.089Z,0.59
2023-03-02T03:09:26.201Z,0.44
2023-03-02T03:10:26.042Z,0.37
2023-03-02T03:11:28.114Z,0.37
2023-03-02T03:12:26.041Z,0.37
2023-03-02T03:13:26.047Z,0.44
2023-03-02T03:14:26.002Z,0.40
2023-03-02T03:15:26.001Z,0.41
2023-03-02T03:16:26.020Z,0.45
2023-03-02T03:17:26.007Z,0.34
2023-03-02T03:18:25.970Z,0.30
2023-03-02T03:19:25.958Z,0.38
2023-03-02T03:20:25.933Z,0.38
2023-03-02T03:21:25.932Z,0.35
2023-03-02T03:22:25.904Z,0.31
2023-03-02T03:23:25.934Z,0.33
2023-03-02T03:24:25.891Z,0.35
2023-03-02T03:25:25.943Z,0.34
2023-03-02T03:26:25.861Z,0.34
2023-03-02T03:27:25.845Z,0.41
2023-03-02T03:28:25.889Z,0.43
2023-03-02T03:29:25.866Z,0.44
2023-03-02T03:30:25.850Z,0.37
2023-03-02T03:31:25.810Z,0.33
2023-03-02T03:32:25.871Z,0.34
2023-03-02T03:33:25.799Z,0.26
2023-03-02T03:34:25.795Z,0.40
2023-03-02T03:35:25.834Z,0.33
2023-03-02T03:36:25.766Z,0.28
2023-03-02T03:37:25.757Z,0.30
2023-03-02T03:38:25.742Z,0.20
2023-03-02T03:39:25.723Z,0.31
2023-03-02T03:40:25.738Z,0.23
2023-03-02T03:41:25.728Z,0.25
2023-03-02T03:42:25.712Z,0.30
2023-03-02T03:43:25.720Z,0.31
2023-03-02T03:44:25.670Z,0.33
2023-03-02T03:45:25.705Z,0.28
2023-03-02T03:46:25.720Z,0.19
2023-03-02T03:47:25.664Z,0.26
2023-03-02T03:48:25.624Z,0.15
2023-03-02T03:49:25.624Z,0.15
2023-03-02T03:50:25.603Z,0.10
2023-03-02T03:51:25.618Z,0.16
2023-03-02T03:52:25.581Z,0.20
2023-03-02T03:53:25.583Z,0.15
2023-03-02T03:54:25.557Z,0.15
2023-03-02T03:55:25.583Z,0.15
2023-03-02T03:56:25.545Z,0.12
2023-03-02T03:57:25.560Z,0.07
2023-03-02T03:58:25.570Z,0.16
2023-03-02T03:59:25.528Z,0.16
2023-03-02T04:00:25.531Z,0.13
2023-03-02T04:01:25.521Z,0.13
2023-03-02T04:02:25.610Z,0.13
2023-03-02T04:03:25.470Z,0.10
2023-03-02T04:04:25.468Z,0.08
2023-03-02T04:05:25.444Z,0.08
2023-03-02T04:06:26.524Z,0.16
2023-03-02T04:07:25.446Z,0.10
2023-03-02T04:08:27.487Z,0.12
2023-03-02T04:09:25.409Z,0.10
2023-03-02T04:10:25.396Z,0.08
2023-03-02T04:11:25.386Z,0.04
2023-03-02T04:12:25.390Z,-0.02
2023-03-02T04:13:25.389Z,-0.01
2023-03-02T04:14:25.356Z,-0.01
2023-03-02T04:15:26.416Z,0.04
2023-03-02T04:16:25.423Z,0.15
2023-03-02T04:17:25.338Z,0.02
2023-03-02T04:18:25.308Z,-0.03
2023-03-02T04:19:25.317Z,-0.05
2023-03-02T04:20:25.280Z,0.02
2023-03-02T04:21:26.306Z,0.05
2023-03-02T04:22:25.287Z,-0.01
2023-03-02T04:23:25.284Z,-0.02
2023-03-02T04:24:25.296Z,0.01
2023-03-02T04:25:25.244Z,-0.05
2023-03-02T04:26:25.229Z,-0.05
2023-03-02T04:27:25.220Z,-0.13
2023-03-02T04:28:26.262Z,-0.19
2023-03-02T04:29:25.245Z,-0.23
2023-03-02T04:30:25.183Z,-0.20
2023-03-02T04:31:25.238Z,-0.16
2023-03-02T04:32:26.294Z,-0.14
2023-03-02T04:33:25.165Z,-0.19
2023-03-02T04:34:25.170Z,-0.14
2023-03-02T04:35:25.233Z,-0.20
2023-03-02T04:36:25.119Z,-0.14
2023-03-02T04:37:25.115Z,-0.20
2023-03-02T04:38:25.112Z,-0.19
2023-03-02T04:39:25.122Z,-0.20
2023-03-02T04:40:25.093Z,-0.12
2023-03-02T04:41:25.070Z,-0.27
2023-03-02T04:42:25.073Z,-0.16
2023-03-02T04:43:25.059Z,-0.23
2023-03-02T04:44:25.073Z,-0.20
2023-03-02T04:45:25.055Z,-0.31
2023-03-02T04:46:25.064Z,-0.27
2023-03-02T04:47:25.013Z,-0.21
2023-03-02T04:48:25.009Z,-0.38
2023-03-02T04:49:24.998Z,-0.34
2023-03-02T04:50:25.011Z,-0.23
2023-03-02T04:51:25.017Z,-0.27
2023-03-02T04:52:24.986Z,-0.20
2023-03-02T04:53:24.953Z,-0.31
2023-03-02T04:54:24.962Z,-0.35
2023-03-02T04:55:24.973Z,-0.26
2023-03-02T04:56:24.918Z,-0.26
2023-03-02T04:57:24.917Z,-0.30
2023-03-02T04:58:24.919Z,-0.24
2023-03-02T04:59:24.918Z,-0.23
2023-03-02T05:00:24.925Z,-0.17
2023-03-02T05:01:24.913Z,-0.26
2023-03-02T05:02:24.936Z,-0.20
2023-03-02T05:03:25.878Z,-0.19
2023-03-02T05:04:24.908Z,-0.24
2023-03-02T05:05:24.866Z,-0.20
2023-03-02T05:06:24.835Z,-0.32
2023-03-02T05:07:24.829Z,-0.27
2023-03-02T05:08:24.789Z,-0.20
2023-03-02T05:09:24.795Z,-0.30
2023-03-02T05:10:24.766Z,-0.17
2023-03-02T05:11:24.771Z,-0.19
2023-03-02T05:12:24.768Z,-0.24
2023-03-02T05:13:24.737Z,-0.26
2023-03-02T05:14:24.740Z,-0.30
2023-03-02T05:15:24.709Z,-0.37
2023-03-02T05:16:24.892Z,-0.38
2023-03-02T05:17:24.742Z,-0.41
2023-03-02T05:18:24.685Z,-0.52
2023-03-02T05:19:24.677Z,-0.45
2023-03-02T05:20:25.716Z,-0.59
2023-03-02T05:21:24.656Z,-0.58
2023-03-02T05:22:24.652Z,-0.55
2023-03-02T05:23:25.725Z,-0.55
2023-03-02T05:24:24.662Z,-0.58
2023-03-02T05:25:24.616Z,-0.62
2023-03-02T05:26:24.599Z,-0.59
2023-03-02T05:27:24.606Z,-0.59
2023-03-02T05:28:24.597Z,-0.62
2023-03-02T05:29:24.578Z,-0.59
2023-03-02T05:30:24.568Z,-0.58
2023-03-02T05:31:24.554Z,-0.59
2023-03-02T05:32:26.649Z,-0.62
2023-03-02T05:33:24.633Z,-0.63
2023-03-02T05:34:24.528Z,-0.63
2023-03-02T05:35:24.550Z,-0.65
2023-03-02T05:36:24.508Z,-0.65
2023-03-02T05:37:24.489Z,-0.65
2023-03-02T05:38:24.502Z,-0.68
2023-03-02T05:39:24.457Z,-0.71
2023-03-02T05:40:24.445Z,-0.73
2023-03-02T05:41:24.448Z,-0.68
2023-03-02T05:42:24.455Z,-0.71
2023-03-02T05:43:24.429Z,-0.70
2023-03-02T05:44:24.457Z,-0.63
2023-03-02T05:45:24.415Z,-0.62
2023-03-02T05:46:24.481Z,-0.60
2023-03-02T05:47:24.375Z,-0.65
2023-03-02T05:48:24.366Z,-0.63
2023-03-02T05:49:24.381Z,-0.59
2023-03-02T05:50:24.346Z,-0.60
2023-03-02T05:51:24.334Z,-0.59
2023-03-02T05:52:24.346Z,-0.59
2023-03-02T05:53:24.308Z,-0.62
2023-03-02T05:54:24.300Z,-0.56
2023-03-02T05:55:24.315Z,-0.55
2023-03-02T05:56:24.311Z,-0.60
2023-03-02T05:57:24.269Z,-0.63
2023-03-02T05:58:25.266Z,-0.62
2023-03-02T05:59:24.251Z,-0.62
2023-03-02T06:00:24.256Z,-0.58
2023-03-02T06:01:24.225Z,-0.58
2023-03-02T06:02:24.231Z,-0.60
2023-03-02T06:03:24.287Z,-0.58
2023-03-02T06:04:24.220Z,-0.58
2023-03-02T06:05:24.190Z,-0.62
2023-03-02T06:06:24.157Z,-0.62
2023-03-02T06:07:24.159Z,-0.67
2023-03-02T06:08:24.164Z,-0.60
2023-03-02T06:09:24.133Z,-0.65
2023-03-02T06:10:24.145Z,-0.67
2023-03-02T06:11:24.134Z,-0.56
2023-03-02T06:12:24.099Z,-0.62
2023-03-02T06:13:24.100Z,-0.58
2023-03-02T06:14:24.083Z,-0.59
2023-03-02T06:15:25.096Z,-0.60
2023-03-02T06:16:24.128Z,-0.67
2023-03-02T06:17:24.069Z,-0.62
2023-03-02T06:18:24.031Z,-0.62
2023-03-02T06:19:24.034Z,-0.58
2023-03-02T06:20:24.015Z,-0.67
2023-03-02T06:21:24.029Z,-0.59
2023-03-02T06:22:24.019Z,-0.60
2023-03-02T06:23:23.978Z,-0.58
2023-03-02T06:24:23.966Z,-0.56
2023-03-02T06:25:23.982Z,-0.62
2023-03-02T06:26:25.008Z,-0.60
2023-03-02T06:27:24.013Z,-0.59
2023-03-02T06:28:23.935Z,-0.56
2023-03-02T06:29:23.910Z,-0.59
2023-03-02T06:30:23.902Z,-0.50
2023-03-02T06:31:23.995Z,-0.56
2023-03-02T06:32:24.000Z,-0.55
2023-03-02T06:33:23.900Z,-0.62
2023-03-02T06:34:23.915Z,-0.55
2023-03-02T06:35:24.202Z,-0.59
2023-03-02T06:36:23.879Z,-0.59
2023-03-02T06:37:23.882Z,-0.50
2023-03-02T06:38:23.821Z,-0.59
2023-03-02T06:39:23.840Z,-0.59
2023-03-02T06:40:23.795Z,-0.59
2023-03-02T06:41:23.790Z,-0.59
2023-03-02T06:42:23.769Z,-0.58
2023-03-02T06:43:23.769Z,-0.59
2023-03-02T06:44:23.776Z,-0.59
2023-03-02T06:45:23.770Z,-0.63
2023-03-02T06:46:23.807Z,-0.59
2023-03-02T06:47:23.737Z,-0.58
2023-03-02T06:48:23.710Z,-0.56
2023-03-02T06:49:23.725Z,-0.59
2023-03-02T06:50:23.720Z,-0.59
2023-03-02T06:51:23.676Z,-0.53
2023-03-02T06:52:23.672Z,-0.60
2023-03-02T06:53:23.674Z,-0.65
2023-03-02T06:54:24.201Z,-0.65
2023-03-02T06:55:23.635Z,-0.58
2023-03-02T06:56:23.638Z,-0.59
2023-03-02T06:57:23.618Z,-0.59
2023-03-02T06:58:23.608Z,-0.53
2023-03-02T06:59:23.592Z,-0.52
2023-03-02T07:00:25.649Z,-0.52
2023-03-02T07:01:23.619Z,-0.50
2023-03-02T07:02:24.613Z,-0.52
2023-03-02T07:03:23.577Z,-0.47
2023-03-02T07:04:23.545Z,-0.37
2023-03-02T07:05:23.523Z,-0.38
2023-03-02T07:06:23.546Z,-0.34
2023-03-02T07:07:23.497Z,-0.38
2023-03-02T07:08:23.501Z,-0.37
2023-03-02T07:09:23.653Z,-0.34
2023-03-02T07:10:24.483Z,-0.34
2023-03-02T07:11:23.464Z,-0.37
2023-03-02T07:12:23.474Z,-0.39
2023-03-02T07:13:23.429Z,-0.37
2023-03-02T07:14:23.444Z,-0.30
2023-03-02T07:15:23.415Z,-0.34
2023-03-02T07:16:23.490Z,-0.32
2023-03-02T07:17:23.417Z,-0.34
2023-03-02T07:18:23.386Z,-0.31
2023-03-02T07:19:23.362Z,-0.23
2023-03-02T07:20:23.367Z,-0.24
2023-03-02T07:21:23.363Z,-0.26
2023-03-02T07:22:23.371Z,-0.30
2023-03-02T07:23:23.320Z,-0.13
2023-03-02T07:24:23.320Z,-0.13
2023-03-02T07:25:23.321Z,-0.21
2023-03-02T07:26:23.310Z,-0.20
2023-03-02T07:27:23.275Z,-0.09
2023-03-02T07:28:23.300Z,-0.09
2023-03-02T07:29:23.262Z,-0.13
2023-03-02T07:30:23.265Z,-0.08
2023-03-02T07:31:23.240Z,-0.01
2023-03-02T07:32:24.418Z,0.01
2023-03-02T07:33:23.288Z,0.01
2023-03-02T07:34:23.236Z,-0.03
2023-03-02T07:35:23.257Z,0.08
2023-03-02T07:36:23.191Z,0.12
2023-03-02T07:37:24.203Z,0.13
2023-03-02T07:38:23.168Z,0.16
2023-03-02T07:39:23.210Z,0.20
2023-03-02T07:40:23.175Z,0.25
2023-03-02T07:41:23.163Z,0.20
2023-03-02T07:42:23.136Z,0.31
2023-03-02T07:43:23.118Z,0.35
2023-03-02T07:44:23.108Z,0.38
2023-03-02T07:45:23.110Z,0.34
2023-03-02T07:46:23.157Z,0.41
2023-03-02T07:47:23.080Z,0.43
2023-03-02T07:48:23.079Z,0.52
2023-03-02T07:49:23.071Z,0.59
2023-03-02T07:50:23.067Z,0.67
2023-03-02T07:51:23.028Z,0.48
2023-03-02T07:52:23.029Z,0.59
2023-03-02T07:53:23.010Z,0.63
2023-03-02T07:54:23.027Z,0.63
2023-03-02T07:55:23.015Z,0.71
2023-03-02T07:56:23.005Z,0.71
2023-03-02T07:57:23.053Z,0.80
2023-03-02T07:58:22.966Z,0.92
2023-03-02T07:59:22.983Z,0.82
2023-03-02T08:00:22.962Z,0.90
2023-03-02T08:01:23.019Z,0.89
2023-03-02T08:02:23.012Z,0.95
2023-03-02T08:03:22.932Z,1.00
2023-03-02T08:04:22.951Z,1.00
2023-03-02T08:05:22.924Z,1.00
2023-03-02T08:06:22.890Z,1.11
2023-03-02T08:07:22.858Z,1.08
2023-03-02T08:08:22.848Z,1.08
2023-03-02T08:09:22.840Z,1.11
2023-03-02T08:10:22.853Z,1.24
2023-03-02T08:11:22.819Z,1.21
2023-03-02T08:12:22.805Z,1.13
2023-03-02T08:13:22.893Z,1.08
2023-03-02T08:14:22.784Z,1.00
2023-03-02T08:15:22.798Z,1.11
2023-03-02T08:16:22.797Z,1.21
2023-03-02T08:17:22.754Z,1.21
2023-03-02T08:18:22.744Z,1.20
2023-03-02T08:19:22.740Z,1.21
2023-03-02T08:20:22.728Z,1.20
2023-03-02T08:21:22.727Z,1.14
2023-03-02T08:22:22.729Z,1.29
2023-03-02T08:23:22.774Z,1.32
2023-03-02T08:24:22.680Z,1.38
2023-03-02T08:25:22.688Z,1.36
2023-03-02T08:26:22.658Z,1.46
2023-03-02T08:27:22.668Z,1.50
2023-03-02T08:28:22.634Z,1.43
2023-03-02T08:29:22.644Z,1.43
2023-03-02T08:30:22.609Z,1.60
2023-03-02T08:31:22.665Z,1.47
2023-03-02T08:32:22.603Z,1.65
2023-03-02T08:33:22.603Z,1.63
2023-03-02T08:34:22.568Z,1.65
2023-03-02T08:35:22.604Z,1.65
2023-03-02T08:36:22.551Z,1.65
2023-03-02T08:37:22.540Z,1.63
2023-03-02T08:38:22.542Z,1.81
2023-03-02T08:39:22.511Z,1.65
2023-03-02T08:40:22.517Z,1.81
2023-03-02T08:41:22.526Z,1.79
2023-03-02T08:42:22.505Z,1.81
2023-03-02T08:43:22.496Z,1.86
2023-03-02T08:44:22.488Z,1.86
2023-03-02T08:45:22.477Z,1.83
2023-03-02T08:46:22.454Z,1.81
2023-03-02T08:47:22.431Z,1.88
2023-03-02T08:48:22.454Z,1.93
2023-03-02T08:49:22.430Z,1.98
2023-03-02T08:50:22.395Z,1.98
2023-03-02T08:51:22.415Z,1.98
2023-03-02T08:52:22.406Z,2.01
2023-03-02T08:53:22.356Z,2.08
2023-03-02T08:54:22.361Z,2.08
2023-03-02T08:55:22.421Z,2.11
2023-03-02T08:56:22.351Z,2.26
2023-03-02T08:57:22.307Z,2.27
2023-03-02T08:58:22.327Z,2.37
2023-03-02T08:59:22.291Z,2.36
2023-03-02T09:00:22.294Z,2.40
2023-03-02T09:01:22.367Z,2.47
2023-03-02T09:02:22.264Z,2.50
2023-03-02T09:03:22.274Z,2.48
2023-03-02T09:04:22.314Z,2.62
2023-03-02T09:05:22.232Z,2.61
2023-03-02T09:06:22.214Z,2.62
2023-03-02T09:07:22.201Z,2.76
2023-03-02T09:08:22.184Z,2.61
2023-03-02T09:09:22.207Z,2.79
2023-03-02T09:10:22.175Z,2.76
2023-03-02T09:11:22.159Z,2.80
2023-03-02T09:12:22.150Z,2.83
2023-03-02T09:13:22.153Z,2.90
2023-03-02T09:14:22.126Z,2.95
2023-03-02T09:15:22.128Z,3.10
2023-03-02T09:16:22.157Z,3.04
2023-03-02T09:17:22.108Z,3.02
2023-03-02T09:18:22.084Z,3.13
2023-03-02T09:19:22.060Z,3.20
2023-03-02T09:20:22.070Z,3.15
2023-03-02T09:21:22.049Z,3.25
2023-03-02T09:22:22.042Z,3.33
2023-03-02T09:23:22.020Z,3.31
2023-03-02T09:24:22.015Z,3.42
2023-03-02T09:25:22.028Z,3.57
2023-03-02T09:26:21.993Z,3.53
2023-03-02T09:27:21.998Z,3.59
2023-03-02T09:28:21.970Z,3.60
2023-03-02T09:29:22.028Z,3.64
2023-03-02T09:30:21.955Z,3.63
2023-03-02T09:31:21.994Z,3.81
2023-03-02T09:32:22.051Z,3.86
2023-03-02T09:33:21.922Z,3.88
2023-03-02T09:34:21.918Z,3.81
2023-03-02T09:35:21.915Z,3.84
2023-03-02T09:36:21.893Z,3.93
2023-03-02T09:37:21.882Z,3.96
2023-03-02T09:38:21.864Z,4.00
2023-03-02T09:39:21.860Z,4.08
2023-03-02T09:40:21.851Z,4.02
2023-03-02T09:41:21.854Z,3.99
2023-03-02T09:42:22.896Z,4.04
2023-03-02T09:43:21.815Z,4.17
2023-03-02T09:44:21.796Z,4.20
2023-03-02T09:45:21.813Z,4.28
2023-03-02T09:46:21.835Z,4.28
2023-03-02T09:47:34.826Z,4.39
2023-03-02T09:48:22.768Z,4.32
2023-03-02T09:49:21.764Z,4.50
2023-03-02T09:50:21.733Z,4.36
2023-03-02T09:51:21.714Z,4.46
2023-03-02T09:52:21.733Z,4.51
2023-03-02T09:53:21.700Z,4.53
2023-03-02T09:54:21.742Z,4.50
2023-03-02T09:55:21.685Z,4.54
2023-03-02T09:56:21.665Z,4.68
2023-03-02T09:57:21.672Z,4.72
2023-03-02T09:58:21.642Z,4.62
2023-03-02T09:59:21.652Z,4.71
2023-03-02T10:00:21.616Z,4.77
2023-03-02T10:01:21.618Z,4.74
2023-03-02T10:02:21.628Z,4.96
2023-03-02T10:03:21.602Z,4.96
2023-03-02T10:04:21.799Z,4.96
2023-03-02T10:05:22.627Z,4.97
2023-03-02T10:06:21.563Z,4.87
2023-03-02T10:07:21.544Z,4.99
2023-03-02T10:08:21.529Z,5.06
2023-03-02T10:09:21.514Z,5.08
2023-03-02T10:10:21.527Z,5.08
2023-03-02T10:11:21.499Z,5.12
2023-03-02T10:12:21.505Z,5.17
2023-03-02T10:13:21.532Z,5.19
2023-03-02T10:14:21.479Z,5.19
2023-03-02T10:15:21.456Z,5.23
2023-03-02T10:16:21.489Z,5.29
2023-03-02T10:17:21.462Z,5.15
2023-03-02T10:18:21.484Z,5.22
2023-03-02T10:19:21.441Z,5.30
2023-03-02T10:20:21.400Z,5.33
2023-03-02T10:21:21.472Z,5.48
2023-03-02T10:22:21.382Z,5.55
2023-03-02T10:23:21.398Z,5.49
2023-03-02T10:24:21.354Z,5.55
2023-03-02T10:25:22.415Z,5.49
2023-03-02T10:26:21.337Z,5.59
2023-03-02T10:27:21.344Z,5.66
2023-03-02T10:28:21.335Z,5.67
2023-03-02T10:29:22.336Z,5.60
2023-03-02T10:30:21.298Z,5.70
2023-03-02T10:31:21.391Z,5.74
2023-03-02T10:32:21.266Z,5.85
2023-03-02T10:33:21.240Z,5.93
2023-03-02T10:34:21.266Z,5.93
2023-03-02T10:35:21.343Z,5.87
2023-03-02T10:36:21.224Z,5.93
2023-03-02T10:37:21.248Z,5.87
2023-03-02T10:38:21.284Z,5.92
2023-03-02T10:39:21.194Z,5.99
2023-03-02T10:40:21.203Z,6.03
2023-03-02T10:41:21.180Z,5.95
2023-03-02T10:42:21.253Z,6.03
2023-03-02T10:43:21.149Z,6.01
2023-03-02T10:44:21.161Z,6.17
2023-03-02T10:45:21.170Z,6.25
2023-03-02T10:46:21.230Z,6.33
2023-03-02T10:47:21.104Z,6.35
2023-03-02T10:48:21.106Z,6.36
2023-03-02T10:49:21.278Z,6.32
2023-03-02T10:50:21.091Z,6.46
2023-03-02T10:51:21.084Z,6.46
2023-03-02T10:52:21.063Z,6.48
2023-03-02T10:53:21.064Z,6.45
2023-03-02T10:54:21.028Z,6.39
2023-03-02T10:55:21.016Z,6.48
2023-03-02T10:56:21.042Z,6.57
2023-03-02T10:57:20.996Z,6.61
2023-03-02T10:58:20.983Z,6.58
2023-03-02T10:59:20.973Z,6.61
2023-03-02T11:00:20.955Z,6.60
2023-03-02T11:01:21.010Z,6.72
2023-03-02T11:02:20.961Z,6.60
2023-03-02T11:03:20.921Z,6.64
2023-03-02T11:04:20.963Z,6.63
2023-03-02T11:05:20.924Z,6.65
2023-03-02T11:06:20.884Z,6.60
2023-03-02T11:07:21.391Z,6.68
2023-03-02T11:08:20.889Z,6.71
2023-03-02T11:09:20.882Z,6.71
2023-03-02T11:10:20.846Z,6.73
2023-03-02T11:11:20.927Z,6.73
2023-03-02T11:12:20.821Z,6.75
2023-03-02T11:13:21.883Z,6.81
2023-03-02T11:14:20.814Z,6.96
2023-03-02T11:15:20.791Z,6.96
2023-03-02T11:16:20.822Z,7.07
2023-03-02T11:17:20.806Z,7.15
2023-03-02T11:18:20.774Z,7.09
2023-03-02T11:19:20.772Z,7.18
2023-03-02T11:20:20.734Z,7.24
2023-03-02T11:21:20.725Z,7.29
2023-03-02T11:22:20.707Z,7.36
2023-03-02T11:23:21.775Z,7.36
2023-03-02T11:24:20.712Z,7.39
2023-03-02T11:25:20.705Z,7.39
2023-03-02T11:26:20.685Z,7.21
2023-03-02T11:27:20.689Z,7.18
2023-03-02T11:28:20.682Z,7.09
2023-03-02T11:29:22.659Z,7.12
2023-03-02T11:30:20.639Z,7.05
2023-03-02T11:31:20.657Z,7.15
2023-03-02T11:32:20.717Z,7.26
2023-03-02T11:33:20.771Z,7.34
2023-03-02T11:34:20.677Z,7.47
2023-03-02T11:35:22.452Z,7.36
2023-03-02T11:36:20.555Z,7.29
2023-03-02T11:37:20.577Z,7.41
2023-03-02T11:38:20.533Z,7.50
2023-03-02T11:39:20.574Z,7.45
2023-03-02T11:40:20.515Z,7.58
2023-03-02T11:41:20.541Z,7.54
2023-03-02T11:42:20.571Z,7.55
2023-03-02T11:43:20.501Z,7.41
2023-03-02T11:44:20.496Z,7.54
2023-03-02T11:45:20.475Z,7.77
2023-03-02T11:46:22.313Z,7.92
2023-03-02T11:47:20.606Z,7.77
2023-03-02T11:48:20.428Z,7.45
2023-03-02T11:49:20.448Z,7.45
2023-03-02T11:50:20.409Z,7.54
2023-03-02T11:51:20.438Z,7.76
2023-03-02T11:52:20.397Z,7.91
2023-03-02T11:53:20.412Z,8.07
2023-03-02T11:54:20.355Z,8.02
2023-03-02T11:55:20.383Z,7.94
2023-03-02T11:56:20.347Z,8.00
2023-03-02T11:57:20.361Z,7.89
2023-03-02T11:58:20.383Z,8.10
2023-03-02T11:59:21.333Z,8.12
2023-03-02T12:00:20.293Z,8.27
2023-03-02T12:01:20.301Z,8.40
2023-03-02T12:02:20.346Z,8.49
2023-03-02T12:03:21.325Z,8.57
2023-03-02T12:04:20.248Z,8.45
2023-03-02T12:05:20.274Z,8.67
2023-03-02T12:06:20.234Z,8.73
2023-03-02T12:07:20.230Z,8.50
2023-03-02T12:08:20.197Z,8.61
2023-03-02T12:09:20.246Z,8.37
2023-03-02T12:10:20.187Z,8.36
2023-03-02T12:11:20.233Z,8.50
2023-03-02T12:12:20.167Z,8.60
2023-03-02T12:13:20.182Z,8.50
2023-03-02T12:14:20.147Z,8.47
2023-03-02T12:15:21.199Z,8.71
2023-03-02T12:16:20.190Z,8.63
2023-03-02T12:17:20.209Z,8.67
2023-03-02T12:18:20.095Z,8.71
2023-03-02T12:19:20.094Z,8.76
2023-03-02T12:20:20.115Z,8.76
2023-03-02T12:21:20.075Z,8.88
2023-03-02T12:22:21.091Z,8.98
2023-03-02T12:23:20.037Z,8.98
2023-03-02T12:24:20.041Z,8.93
2023-03-02T12:25:20.099Z,8.71
2023-03-02T12:26:19.995Z,8.57
2023-03-02T12:27:19.996Z,8.67
2023-03-02T12:28:20.029Z,8.73
2023-03-02T12:29:20.149Z,8.79
2023-03-02T12:30:20.067Z,8.93
2023-03-02T12:31:19.967Z,8.97
2023-03-02T12:32:19.975Z,9.08
2023-03-02T12:33:19.973Z,8.96
2023-03-02T12:34:19.999Z,8.96
2023-03-02T12:35:19.971Z,9.16
2023-03-02T12:36:20.921Z,9.15
2023-03-02T12:37:19.894Z,9.08
2023-03-02T12:38:19.907Z,9.19
2023-03-02T12:39:19.868Z,9.23
2023-03-02T12:40:19.911Z,9.13
2023-03-02T12:41:19.867Z,9.03
2023-03-02T12:42:19.833Z,9.23
2023-03-02T12:43:19.907Z,9.26
2023-03-02T12:44:19.902Z,9.42
2023-03-02T12:45:19.850Z,9.27
2023-03-02T12:46:20.887Z,9.15
2023-03-02T12:47:20.666Z,9.12
2023-03-02T12:48:19.951Z,9.08
2023-03-02T12:49:19.784Z,9.16
2023-03-02T12:50:19.787Z,9.16
2023-03-02T12:51:19.806Z,9.20
2023-03-02T12:52:22.135Z,9.27
2023-03-02T12:53:19.718Z,9.19
2023-03-02T12:54:19.731Z,9.30
2023-03-02T12:55:19.683Z,9.34
2023-03-02T12:56:19.729Z,9.37
2023-03-02T12:57:19.666Z,9.63
2023-03-02T12:58:19.674Z,9.67
2023-03-02T12:59:19.644Z,9.59
2023-03-02T13:00:21.675Z,9.26
2023-03-02T13:01:19.692Z,9.22
2023-03-02T13:02:20.749Z,8.94
2023-03-02T13:03:19.615Z,8.75
2023-03-02T13:04:19.623Z,8.78
2023-03-02T13:05:19.576Z,9.03
2023-03-02T13:06:20.544Z,9.26
2023-03-02T13:07:19.580Z,9.34
2023-03-02T13:08:19.643Z,9.35
2023-03-02T13:09:19.530Z,9.42
2023-03-02T13:10:19.607Z,9.38
2023-03-02T13:11:19.508Z,9.19